createdAt,value
2023-01-08T12:49:06.938Z,25.90
2023-01-08T12:52:48.448Z,29.10
2023-01-08T12:56:20.771Z,31.00
2023-01-08T12:59:45.839Z,27.60
2023-01-08T13:03:40.567Z,29.80
2023-01-08T13:07:19.186Z,28.60
2023-01-08T13:11:06.847Z,28.50
2023-01-08T13:14:51.361Z,29.70
2023-01-08T13:18:49.032Z,25.90
2023-01-08T13:22:37.904Z,31.20
2023-01-08T13:26:32.462Z,27.00
2023-01-08T13:30:30.749Z,29.50
2023-01-08T13:33:39.669Z,24.50
2023-01-08T13:36:32.115Z,23.30
2023-01-08T13:39:54.476Z,27.50
2023-01-08T13:43:07.189Z,26.00
2023-01-08T13:46:02.293Z,35.60
2023-01-08T13:49:04.957Z,27.20
2023-01-08T13:51:49.101Z,31.80
2023-01-08T13:55:30.377Z,29.20
2023-01-08T13:59:19.106Z,31.50
2023-01-08T14:02:50.042Z,32.50
2023-01-08T14:06:50.846Z,32.90
2023-01-08T14:10:48.469Z,36.60
2023-01-08T14:14:05.191Z,33.10
2023-01-08T14:17:06.891Z,39.00
2023-01-08T14:19:34.953Z,31.40
2023-01-08T14:22:41.594Z,36.10
2023-01-08T14:25:44.535Z,37.50
2023-01-08T14:29:21.166Z,34.20
2023-01-08T14:32:30.796Z,40.10
2023-01-08T14:36:01.980Z,36.50
2023-01-08T14:39:25.707Z,34.00
2023-01-08T14:43:14.543Z,40.60
2023-01-08T14:46:55.377Z,31.30
2023-01-08T14:50:44.365Z,38.20
2023-01-08T14:54:36.045Z,41.80
2023-01-08T14:58:24.784Z,35.30
2023-01-08T15:02:19.456Z,34.90
2023-01-08T15:06:07.237Z,34.00
2023-01-08T15:08:48.292Z,32.00
2023-01-08T15:12:27.473Z,33.20
2023-01-08T15:16:07.634Z,38.50
2023-01-08T15:20:11.705Z,36.50
2023-01-08T15:23:51.604Z,34.10
2023-01-08T15:27:19.926Z,40.40
2023-01-08T15:31:02.870Z,38.10
2023-01-08T15:34:38.920Z,44.10
2023-01-08T15:38:27.764Z,32.50
2023-01-08T15:42:05.105Z,33.70
2023-01-08T15:45:36.905Z,38.10
2023-01-08T15:48:50.548Z,37.00
2023-01-08T15:52:31.861Z,47.20
2023-01-08T15:55:34.683Z,35.30
2023-01-08T15:59:16.338Z,30.70
2023-01-08T16:03:05.101Z,33.60
2023-01-08T16:06:39.429Z,35.20
2023-01-08T16:10:18.208Z,33.40
2023-01-08T16:13:46.928Z,38.30
2023-01-08T16:17:24.925Z,39.70
2023-01-08T16:21:03.666Z,31.40
2023-01-08T16:24:42.534Z,38.70
2023-01-08T16:28:31.355Z,41.50
2023-01-08T16:32:20.137Z,32.10
2023-01-08T16:36:09.052Z,32.00
2023-01-08T16:39:30.489Z,31.90
2023-01-08T16:43:09.475Z,36.20
2023-01-08T16:46:48.094Z,34.20
2023-01-08T16:50:36.899Z,33.30
2023-01-08T16:53:51.514Z,37.60
2023-01-08T16:56:54.948Z,39.60
2023-01-08T17:00:43.936Z,42.30
2023-01-08T17:04:22.607Z,38.20
2023-01-08T17:08:11.339Z,35.70
2023-01-08T17:11:55.111Z,41.80
2023-01-08T17:15:33.738Z,39.60
2023-01-08T17:18:13.361Z,41.90
2023-01-08T17:22:02.151Z,37.60
2023-01-08T17:25:43.307Z,31.30
2023-01-08T17:29:32.129Z,41.30
2023-01-08T17:32:50.820Z,35.30
2023-01-08T17:36:29.660Z,34.00
2023-01-08T17:40:08.305Z,39.70
2023-01-08T17:43:57.019Z,38.70
2023-01-08T17:47:45.769Z,37.70
2023-01-08T17:51:34.538Z,37.50
2023-01-08T17:54:19.634Z,33.80
2023-01-08T17:57:41.098Z,40.90
2023-01-08T18:01:19.104Z,36.80
2023-01-08T18:04:09.150Z,38.60
2023-01-08T18:06:41.244Z,45.30
2023-01-08T18:09:28.167Z,36.90
2023-01-08T18:12:09.033Z,38.80
2023-01-08T18:15:17.902Z,40.00
2023-01-08T18:19:06.756Z,35.60
2023-01-08T18:22:48.411Z,40.20
2023-01-08T18:25:53.765Z,34.50
2023-01-08T18:28:32.760Z,36.00
2023-01-08T18:31:21.380Z,37.40
2023-01-08T18:34:53.539Z,35.80
2023-01-08T18:38:15.800Z,40.50
2023-01-08T18:41:55.907Z,35.70
2023-01-08T18:45:37.525Z,37.60
2023-01-08T18:49:26.400Z,42.70
2023-01-08T18:53:05.630Z,38.40
2023-01-08T18:56:47.110Z,41.90
2023-01-08T19:00:37.433Z,36.40
2023-01-08T19:04:27.107Z,43.00
2023-01-08T19:07:57.182Z,37.80
2023-01-08T19:11:39.725Z,46.80
2023-01-08T19:15:18.689Z,43.10
2023-01-08T19:19:07.526Z,47.20
2023-01-08T19:22:56.278Z,45.90
2023-01-08T19:26:33.920Z,39.50
2023-01-08T19:30:15.250Z,41.90
2023-01-08T19:34:04.013Z,51.80
2023-01-08T19:37:52.826Z,47.10
2023-01-08T19:41:31.198Z,52.40
2023-01-08T19:45:19.982Z,49.60
2023-01-08T19:49:08.885Z,51.00
2023-01-08T19:52:40.281Z,51.80
2023-01-08T19:56:29.044Z,42.70
2023-01-08T20:00:17.783Z,50.00
2023-01-08T20:03:57.648Z,46.50
2023-01-08T20:07:36.420Z,50.40
2023-01-08T20:11:25.267Z,42.20
2023-01-08T20:15:14.343Z,52.00
2023-01-08T20:18:22.827Z,56.20
2023-01-08T20:22:05.575Z,53.10
2023-01-08T20:25:54.452Z,56.00
2023-01-08T20:29:43.205Z,57.60
2023-01-08T20:32:56.877Z,44.20
2023-01-08T20:36:51.287Z,50.30
2023-01-08T20:39:52.703Z,48.90
2023-01-08T20:43:21.412Z,56.50
2023-01-08T20:47:03.937Z,52.20
2023-01-08T20:50:52.780Z,47.80
2023-01-08T20:54:41.527Z,47.70
2023-01-08T20:58:22.888Z,50.70
2023-01-08T21:01:45.228Z,56.10
2023-01-08T21:05:02.432Z,57.40
2023-01-08T21:08:33.674Z,49.70
2023-01-08T21:11:51.072Z,54.30
2023-01-08T21:15:02.688Z,55.00
2023-01-08T21:18:26.189Z,45.60
2023-01-08T21:22:20.954Z,52.20
2023-01-08T21:25:49.219Z,49.70
2023-01-08T21:29:09.299Z,56.10
2023-01-08T21:32:38.163Z,44.40
2023-01-08T21:36:16.016Z,49.00
2023-01-08T21:40:03.701Z,50.70
2023-01-08T21:43:51.224Z,57.70
2023-01-08T21:47:39.989Z,50.90
2023-01-08T21:51:02.417Z,49.30
2023-01-08T21:54:51.180Z,45.90
2023-01-08T21:58:39.940Z,44.70
2023-01-08T22:02:18.861Z,57.40
2023-01-08T22:06:07.697Z,49.50
2023-01-08T22:09:46.434Z,48.80
2023-01-08T22:13:15.141Z,56.70
2023-01-08T22:16:48.479Z,54.30
2023-01-08T22:24:01.118Z,48.90
2023-01-08T22:27:48.938Z,63.60
2023-01-08T22:30:57.884Z,58.80
2023-01-08T22:34:17.566Z,54.30
2023-01-08T22:38:06.307Z,52.60
2023-01-08T22:41:04.798Z,56.40
2023-01-08T22:44:36.153Z,54.80
2023-01-08T22:48:23.719Z,44.60
2023-01-08T22:51:53.007Z,53.30
2023-01-08T22:55:40.656Z,52.20
2023-01-08T22:59:29.413Z,58.00
2023-01-08T23:03:18.274Z,49.50
2023-01-08T23:07:06.039Z,46.80
2023-01-08T23:10:54.777Z,50.40
2023-01-08T23:14:43.680Z,49.80
2023-01-08T23:18:22.696Z,49.40
2023-01-08T23:22:11.485Z,52.30
2023-01-08T23:26:00.290Z,49.50
2023-01-08T23:29:49.134Z,51.60
2023-01-08T23:33:36.864Z,42.00
2023-01-08T23:36:56.056Z,46.80
2023-01-08T23:40:45.008Z,45.90
2023-01-08T23:44:23.587Z,53.90
2023-01-08T23:48:12.302Z,46.10
2023-01-08T23:52:01.050Z,41.10
2023-01-08T23:55:39.850Z,50.20
2023-01-08T23:59:28.674Z,52.50
